createdAt,value
2023-02-11T00:01:08.008Z,95237.41
2023-02-11T00:03:34.845Z,95228.47
2023-02-11T00:06:04.182Z,95228.72
2023-02-11T00:08:31.018Z,95232.81
2023-02-11T00:10:58.384Z,95235.16
2023-02-11T00:13:25.612Z,95235.16
2023-02-11T00:15:52.817Z,95235.03
2023-02-11T00:18:19.726Z,95227.63
2023-02-11T00:20:46.502Z,95236.00
2023-02-11T00:23:13.965Z,95234.50
2023-02-11T00:25:42.076Z,95233.00
2023-02-11T00:28:09.400Z,95233.91
2023-02-11T00:30:36.683Z,95233.09
2023-02-11T00:33:03.845Z,95231.44
2023-02-11T00:35:32.392Z,95238.28
2023-02-11T00:38:00.301Z,95235.06
2023-02-11T00:40:27.176Z,95236.22
2023-02-11T00:42:53.943Z,95233.06
2023-02-11T00:45:21.455Z,95230.63
2023-02-11T00:47:48.412Z,95229.66
2023-02-11T00:50:15.160Z,95226.41
2023-02-11T00:52:42.026Z,95223.34
2023-02-11T00:55:09.294Z,95226.59
2023-02-11T00:57:36.178Z,95219.91
2023-02-11T01:00:04.594Z,95221.72
2023-02-11T01:02:31.447Z,95217.66
2023-02-11T01:04:59.860Z,95226.00
2023-02-11T01:07:27.972Z,95224.50
2023-02-11T01:09:54.982Z,95222.97
2023-02-11T01:12:21.870Z,95217.16
2023-02-11T01:14:48.915Z,95222.34
2023-02-11T01:17:18.435Z,95209.88
2023-02-11T01:19:45.352Z,95211.63
2023-02-11T01:22:12.166Z,95209.09
2023-02-11T01:24:39.396Z,95204.19
2023-02-11T01:27:07.730Z,95209.16
2023-02-11T01:29:34.656Z,95209.03
2023-02-11T01:32:01.725Z,95213.97
2023-02-11T01:34:28.750Z,95215.78
2023-02-11T01:36:59.521Z,95215.13
2023-02-11T01:39:28.762Z,95208.56
2023-02-11T01:41:55.699Z,95205.31
2023-02-11T01:44:41.361Z,95195.38
2023-02-11T01:47:09.269Z,95196.34
2023-02-11T01:49:39.257Z,95197.19
2023-02-11T01:52:10.265Z,95203.13
2023-02-11T01:55:00.068Z,95198.97
2023-02-11T01:57:29.933Z,95203.91
2023-02-11T02:00:17.103Z,95201.28
2023-02-11T02:02:55.887Z,95194.63
2023-02-11T02:05:33.600Z,95198.06
2023-02-11T02:08:00.690Z,95197.31
2023-02-11T02:10:28.244Z,95190.66
2023-02-11T02:12:55.044Z,95201.53
2023-02-11T02:15:27.109Z,95194.13
2023-02-11T02:17:59.640Z,95198.28
2023-02-11T02:20:59.582Z,95196.69
2023-02-11T02:23:29.187Z,95196.66
2023-02-11T02:25:59.026Z,95200.06
2023-02-11T02:28:35.016Z,95196.75
2023-02-11T02:31:18.117Z,95190.97
2023-02-11T02:34:03.884Z,95190.91
2023-02-11T02:36:44.220Z,95190.84
2023-02-11T02:39:15.766Z,95191.63
2023-02-11T02:41:43.051Z,95189.13
2023-02-11T02:44:09.807Z,95185.78
2023-02-11T02:46:37.324Z,95189.94
2023-02-11T02:49:07.165Z,95184.94
2023-02-11T02:52:01.879Z,95184.88
2023-02-11T02:54:48.064Z,95186.59
2023-02-11T02:57:44.595Z,95189.19
2023-02-11T03:00:26.763Z,95196.59
2023-02-11T03:03:15.851Z,95195.00
2023-02-11T03:05:45.550Z,95193.34
2023-02-11T03:08:17.939Z,95194.94
2023-02-11T03:10:47.697Z,95204.03
2023-02-11T03:13:17.162Z,95199.03
2023-02-11T03:15:46.998Z,95203.41
2023-02-11T03:18:16.311Z,95202.75
2023-02-11T03:20:45.762Z,95209.41
2023-02-11T03:23:24.116Z,95200.31
2023-02-11T03:25:56.996Z,95202.63
2023-02-11T03:28:31.064Z,95197.44
2023-02-11T03:31:35.362Z,95190.63
2023-02-11T03:34:19.365Z,95189.69
2023-02-11T03:36:52.398Z,95178.09
2023-02-11T03:39:25.672Z,95179.75
2023-02-11T03:41:55.274Z,95181.41
2023-02-11T03:44:23.919Z,95187.94
2023-02-11T03:46:52.476Z,95190.28
2023-02-11T03:49:21.625Z,95192.72
2023-02-11T03:51:51.792Z,95183.41
2023-02-11T03:54:21.467Z,95195.75
2023-02-11T03:56:54.597Z,95184.88
2023-02-11T03:59:21.545Z,95179.03
2023-02-11T04:01:48.240Z,95183.25
2023-02-11T04:04:15.330Z,95185.78
2023-02-11T04:06:42.253Z,95190.13
2023-02-11T04:09:09.507Z,95188.72
2023-02-11T04:11:36.333Z,95191.22
2023-02-11T04:14:03.561Z,95191.25
2023-02-11T04:16:31.103Z,95188.00
2023-02-11T04:18:57.994Z,95190.44
2023-02-11T04:21:24.852Z,95193.00
2023-02-11T04:23:51.582Z,95193.97
2023-02-11T04:26:18.249Z,95195.66
2023-02-11T04:28:45.103Z,95194.03
2023-02-11T04:31:12.948Z,95185.84
2023-02-11T04:33:39.733Z,95180.97
2023-02-11T04:36:06.889Z,95185.28
2023-02-11T04:38:33.558Z,95178.91
2023-02-11T04:41:00.611Z,95176.47
2023-02-11T04:43:27.423Z,95182.25
2023-02-11T04:45:57.661Z,95178.03
2023-02-11T04:48:24.992Z,95178.72
2023-02-11T04:50:51.836Z,95177.00
2023-02-11T04:53:18.587Z,95176.13
2023-02-11T04:55:45.315Z,95178.78
2023-02-11T04:58:12.133Z,95179.75
2023-02-11T05:00:38.827Z,95188.16
2023-02-11T05:03:05.635Z,95176.56
2023-02-11T05:05:32.464Z,95175.63
2023-02-11T05:07:59.146Z,95171.59
2023-02-11T05:10:25.849Z,95163.31
2023-02-11T05:12:55.284Z,95166.59
2023-02-11T05:15:22.698Z,95168.94
2023-02-11T05:17:49.402Z,95164.03
2023-02-11T05:20:16.121Z,95161.56
2023-02-11T05:22:43.022Z,95163.16
2023-02-11T05:25:09.988Z,95157.31
2023-02-11T05:27:36.954Z,95164.88
2023-02-11T05:30:05.379Z,95166.59
2023-02-11T05:32:32.454Z,95163.38
2023-02-11T05:34:59.312Z,95171.66
2023-02-11T05:37:26.303Z,95172.59
2023-02-11T05:39:53.173Z,95170.19
2023-02-11T05:42:20.072Z,95165.19
2023-02-11T05:44:48.511Z,95164.38
2023-02-11T05:47:17.378Z,95165.97
2023-02-11T05:49:44.280Z,95166.03
2023-02-11T05:52:11.185Z,95166.81
2023-02-11T05:54:38.060Z,95164.25
2023-02-11T05:57:04.745Z,95165.91
2023-02-11T05:59:31.483Z,95167.53
2023-02-11T06:01:58.264Z,95166.69
2023-02-11T06:04:25.103Z,95172.41
2023-02-11T06:06:51.933Z,95179.03
2023-02-11T06:09:18.636Z,95180.69
2023-02-11T06:11:45.338Z,95177.25
2023-02-11T06:14:12.249Z,95177.09
2023-02-11T06:16:38.983Z,95182.69
2023-02-11T06:19:06.065Z,95178.22
2023-02-11T06:21:43.521Z,95190.50
2023-02-11T06:24:10.811Z,95181.13
2023-02-11T06:26:37.522Z,95179.19
2023-02-11T06:29:04.320Z,95180.66
2023-02-11T06:31:31.177Z,95178.81
2023-02-11T06:33:59.288Z,95182.81
2023-02-11T06:36:26.156Z,95187.63
2023-02-11T06:38:53.143Z,95182.38
2023-02-11T06:41:20.417Z,95183.03
2023-02-11T06:43:47.613Z,95178.53
2023-02-11T06:46:14.777Z,95189.03
2023-02-11T06:48:44.399Z,95175.28
2023-02-11T06:51:13.323Z,95182.41
2023-02-11T06:53:47.090Z,95184.41
2023-02-11T06:56:20.346Z,95185.59
2023-02-11T06:58:47.887Z,95179.47
2023-02-11T07:01:16.366Z,95194.91
2023-02-11T07:03:45.262Z,95183.63
2023-02-11T07:06:15.101Z,95179.66
2023-02-11T07:08:43.130Z,95189.91
2023-02-11T07:11:12.340Z,95180.09
2023-02-11T07:13:39.135Z,95178.81
2023-02-11T07:16:11.404Z,95173.28
2023-02-11T07:18:38.283Z,95180.38
2023-02-11T07:21:09.563Z,95174.00
2023-02-11T07:23:37.080Z,95175.00
2023-02-11T07:26:13.444Z,95165.94
2023-02-11T07:28:41.566Z,95164.41
2023-02-11T07:31:11.562Z,95157.56
2023-02-11T07:33:38.601Z,95165.00
2023-02-11T07:36:07.141Z,95155.16
2023-02-11T07:38:35.058Z,95146.31
2023-02-11T07:41:07.307Z,95150.44
2023-02-11T07:43:35.021Z,95140.25
2023-02-11T07:46:08.140Z,95148.47
2023-02-11T07:48:35.089Z,95142.81
2023-02-11T07:51:09.801Z,95146.03
2023-02-11T07:53:36.935Z,95148.53
2023-02-11T07:56:05.479Z,95135.81
2023-02-11T07:58:32.671Z,95141.00
2023-02-11T08:01:07.278Z,95144.38
2023-02-11T08:03:35.076Z,95143.13
2023-02-11T08:06:06.671Z,95138.19
2023-02-11T08:08:33.596Z,95141.84
2023-02-11T08:11:12.476Z,95142.25
2023-02-11T08:13:39.352Z,95135.44
2023-02-11T08:16:06.747Z,95133.88
2023-02-11T08:21:19.052Z,95122.16
2023-02-11T08:23:46.555Z,95122.84
2023-02-11T08:26:22.346Z,95120.97
2023-02-11T08:28:51.131Z,95124.97
2023-02-11T08:31:26.558Z,95134.78
2023-02-11T08:33:54.667Z,95132.75
2023-02-11T08:36:23.987Z,95126.88
2023-02-11T08:38:50.896Z,95126.59
2023-02-11T08:41:18.338Z,95124.94
2023-02-11T08:43:45.883Z,95118.22
2023-02-11T08:46:17.822Z,95128.84
2023-02-11T08:48:45.165Z,95129.22
2023-02-11T08:51:15.404Z,95134.59
2023-02-11T08:53:42.209Z,95136.44
2023-02-11T08:56:13.229Z,95131.41
2023-02-11T08:58:40.494Z,95132.31
2023-02-11T09:01:17.385Z,95133.00
2023-02-11T09:03:44.639Z,95132.25
2023-02-11T09:06:12.244Z,95133.13
2023-02-11T09:08:41.317Z,95133.03
2023-02-11T09:11:08.348Z,95123.28
2023-02-11T09:13:35.152Z,95129.34
2023-02-11T09:16:04.240Z,95124.91
2023-02-11T09:18:31.634Z,95116.72
2023-02-11T09:21:06.455Z,95112.34
2023-02-11T09:23:34.593Z,95118.97
2023-02-11T09:26:19.650Z,95104.63
2023-02-11T09:28:47.204Z,95110.25
2023-02-11T09:31:16.837Z,95111.69
2023-02-11T09:33:48.019Z,95107.56
2023-02-11T09:36:20.515Z,95100.50
2023-02-11T09:38:48.689Z,95103.25
2023-02-11T09:41:24.755Z,95091.56
2023-02-11T09:43:56.964Z,95100.50
2023-02-11T09:46:25.393Z,95096.00
2023-02-11T09:48:54.397Z,95084.94
2023-02-11T09:51:41.346Z,95079.22
2023-02-11T09:54:15.702Z,95074.78
2023-02-11T09:56:42.534Z,95070.56
2023-02-11T09:59:15.654Z,95070.09
2023-02-11T10:01:48.553Z,95060.81
2023-02-11T10:04:53.998Z,95056.81
2023-02-11T10:07:43.878Z,95049.72
2023-02-11T10:10:22.455Z,95042.94
2023-02-11T10:13:10.655Z,95033.44
2023-02-11T10:15:55.156Z,95030.97
2023-02-11T10:18:27.876Z,95029.22
2023-02-11T10:21:04.619Z,95017.88
2023-02-11T10:23:34.604Z,95022.81
2023-02-11T10:26:01.601Z,95005.47
2023-02-11T10:28:31.836Z,95002.66
2023-02-11T10:31:04.252Z,94992.91
2023-02-11T10:33:43.589Z,94982.25
2023-02-11T10:36:12.277Z,94981.72
2023-02-11T10:38:39.697Z,94972.91
2023-02-11T10:41:07.198Z,94970.06
2023-02-11T10:43:34.932Z,94965.28
2023-02-11T10:46:03.441Z,94955.88
2023-02-11T10:48:39.514Z,94954.34
2023-02-11T10:51:21.547Z,94948.66
2023-02-11T10:54:19.489Z,94940.22
2023-02-11T10:56:52.179Z,94934.34
2023-02-11T10:59:40.433Z,94939.06
2023-02-11T11:02:08.042Z,94932.19
2023-02-11T11:04:34.769Z,94921.78
2023-02-11T11:07:22.302Z,94925.34
2023-02-11T11:10:08.547Z,94923.34
2023-02-11T11:12:36.788Z,94918.25
2023-02-11T11:15:22.996Z,94926.44
2023-02-11T11:17:51.307Z,94918.47
2023-02-11T11:20:22.825Z,94910.97
2023-02-11T11:22:51.936Z,94917.25
2023-02-11T11:25:27.478Z,94911.84
2023-02-11T11:27:57.097Z,94916.78
2023-02-11T11:30:43.554Z,94905.44
2023-02-11T11:33:36.703Z,94908.31
2023-02-11T11:36:05.136Z,94906.63
2023-02-11T11:38:33.393Z,94897.78
2023-02-11T11:41:27.231Z,94899.66
2023-02-11T11:44:23.097Z,94894.66
2023-02-11T11:46:55.924Z,94900.63
2023-02-11T11:49:30.003Z,94890.53
2023-02-11T11:52:12.573Z,94888.16
2023-02-11T11:54:40.332Z,94888.66
2023-02-11T11:57:17.787Z,94889.75
2023-02-11T11:59:44.832Z,94882.28
2023-02-11T12:02:52.585Z,94877.53
2023-02-11T12:05:25.427Z,94871.50
2023-02-11T12:08:10.458Z,94866.44
2023-02-11T12:11:02.080Z,94864.28
2023-02-11T12:13:41.166Z,94854.22
2023-02-11T12:16:37.020Z,94845.50
2023-02-11T12:19:25.294Z,94847.69
2023-02-11T12:22:19.214Z,94846.09
2023-02-11T12:24:57.299Z,94836.56
2023-02-11T12:27:27.170Z,94838.56
2023-02-11T12:30:16.450Z,94835.13
2023-02-11T12:32:59.485Z,94822.97
2023-02-11T12:35:38.606Z,94824.25
2023-02-11T12:38:11.548Z,94810.03
2023-02-11T12:41:01.912Z,94816.75
2023-02-11T12:43:37.868Z,94810.91
2023-02-11T12:46:21.066Z,94810.81
2023-02-11T12:49:27.163Z,94811.94
2023-02-11T12:52:13.441Z,94801.38
2023-02-11T12:55:01.592Z,94804.31
2023-02-11T12:57:32.497Z,94799.53
2023-02-11T13:00:03.026Z,94798.53
2023-02-11T13:02:32.692Z,94799.41
2023-02-11T13:05:12.646Z,94797.84
2023-02-11T13:07:44.749Z,94789.53
2023-02-11T13:10:25.178Z,94788.41
2023-02-11T13:13:11.578Z,94792.25
2023-02-11T13:15:39.056Z,94790.63
2023-02-11T13:18:19.829Z,94782.13
2023-02-11T13:21:11.477Z,94782.44
2023-02-11T13:24:16.094Z,94782.25
2023-02-11T13:26:42.872Z,94775.94
2023-02-11T13:29:36.179Z,94784.34
2023-02-11T13:32:09.909Z,94784.56
2023-02-11T13:34:42.945Z,94784.63
2023-02-11T13:37:39.039Z,94782.38
2023-02-11T13:40:22.601Z,94782.31
2023-02-11T13:42:55.621Z,94776.97
2023-02-11T13:45:25.312Z,94775.50
2023-02-11T13:47:57.330Z,94770.03
2023-02-11T13:50:25.907Z,94766.94
2023-02-11T13:53:00.726Z,94766.03
2023-02-11T13:55:30.228Z,94762.78
2023-02-11T13:58:06.008Z,94753.28
2023-02-11T14:00:35.778Z,94749.94
2023-02-11T14:03:30.534Z,94756.25
2023-02-11T14:06:43.374Z,94741.88
2023-02-11T14:09:10.136Z,94736.88
2023-02-11T14:11:47.672Z,94740.59
2023-02-11T14:14:17.559Z,94738.88
2023-02-11T14:16:59.858Z,94737.94
2023-02-11T14:19:38.724Z,94741.38
2023-02-11T14:22:41.713Z,94744.25
2023-02-11T14:25:34.893Z,94750.97
2023-02-11T14:28:23.870Z,94741.13
2023-02-11T14:31:04.247Z,94739.50
2023-02-11T14:34:01.494Z,94736.63
2023-02-11T14:36:55.627Z,94735.31
2023-02-11T14:39:28.792Z,94736.50
2023-02-11T14:41:55.945Z,94742.22
2023-02-11T14:44:25.718Z,94747.78
2023-02-11T14:46:54.361Z,94750.06
2023-02-11T14:49:25.263Z,94743.38
2023-02-11T14:51:54.743Z,94743.91
2023-02-11T14:54:25.350Z,94745.56
2023-02-11T14:57:08.951Z,94751.56
2023-02-11T14:59:36.014Z,94748.28
2023-02-11T15:02:03.184Z,94742.28
2023-02-11T15:04:33.093Z,94738.16
2023-02-11T15:07:06.101Z,94735.53
2023-02-11T15:09:43.347Z,94734.63
2023-02-11T15:12:23.819Z,94736.44
2023-02-11T15:14:59.339Z,94732.63
2023-02-11T15:17:28.986Z,94740.94
2023-02-11T15:19:58.366Z,94728.13
2023-02-11T15:22:30.517Z,94723.41
2023-02-11T15:25:04.092Z,94725.28
2023-02-11T15:27:42.653Z,94711.44
2023-02-11T15:30:24.980Z,94716.97
2023-02-11T15:33:00.518Z,94712.56
2023-02-11T15:35:33.485Z,94709.97
2023-02-11T15:38:00.612Z,94708.97
2023-02-11T15:40:32.338Z,94707.94
2023-02-11T15:43:07.601Z,94711.56
2023-02-11T15:45:45.268Z,94712.94
2023-02-11T15:48:22.971Z,94715.22
2023-02-11T15:50:58.902Z,94714.50
2023-02-11T15:53:27.901Z,94713.78
2023-02-11T15:56:24.223Z,94716.44
2023-02-11T15:58:53.955Z,94723.38
2023-02-11T16:01:33.738Z,94719.03
2023-02-11T16:04:01.709Z,94722.84
2023-02-11T16:06:42.064Z,94721.16
2023-02-11T16:09:08.818Z,94723.47
2023-02-11T16:11:58.268Z,94719.81
2023-02-11T16:14:29.585Z,94722.16
2023-02-11T16:17:19.433Z,94727.38
2023-02-11T16:19:48.268Z,94723.41
2023-02-11T16:22:30.186Z,94723.13
2023-02-11T16:24:58.799Z,94725.88
2023-02-11T16:27:34.087Z,94721.31
2023-02-11T16:30:01.004Z,94726.25
2023-02-11T16:32:29.071Z,94732.19
2023-02-11T16:34:59.416Z,94729.28
2023-02-11T16:37:26.759Z,94727.69
2023-02-11T16:39:54.566Z,94722.41
2023-02-11T16:42:21.350Z,94725.25
2023-02-11T16:44:48.076Z,94724.38
2023-02-11T16:47:26.974Z,94724.38
2023-02-11T16:49:54.369Z,94729.22
2023-02-11T16:52:22.018Z,94720.59
2023-02-11T16:54:48.917Z,94719.78
2023-02-11T16:57:21.343Z,94715.16
2023-02-11T16:59:48.795Z,94713.44
2023-02-11T17:02:28.844Z,94719.88
2023-02-11T17:04:58.367Z,94717.25
2023-02-11T17:07:25.345Z,94716.38
2023-02-11T17:09:52.299Z,94718.78
2023-02-11T17:12:19.613Z,94716.69
2023-02-11T17:14:46.442Z,94708.03
2023-02-11T17:17:13.308Z,94705.28
2023-02-11T17:19:40.058Z,94699.03
2023-02-11T17:22:06.942Z,94694.91
2023-02-11T17:24:33.741Z,94694.28
2023-02-11T17:27:00.480Z,94692.38
2023-02-11T17:29:27.384Z,94696.38
2023-02-11T17:31:54.681Z,94696.16
2023-02-11T17:34:22.570Z,94703.69
2023-02-11T17:36:49.636Z,94708.19
2023-02-11T17:39:16.525Z,94707.19
2023-02-11T17:41:43.343Z,94714.31
2023-02-11T17:44:12.541Z,94706.22
2023-02-11T17:46:39.217Z,94700.34
2023-02-11T17:49:05.997Z,94713.03
2023-02-11T17:51:35.019Z,94714.97
2023-02-11T17:54:02.950Z,94712.25
2023-02-11T17:56:32.829Z,94715.28
2023-02-11T17:58:59.515Z,94716.25
2023-02-11T18:01:30.768Z,94721.00
2023-02-11T18:03:57.805Z,94719.06
2023-02-11T18:06:24.925Z,94728.50
2023-02-11T18:08:51.763Z,94730.09
2023-02-11T18:11:19.044Z,94735.94
2023-02-11T18:13:45.823Z,94737.50
2023-02-11T18:16:15.825Z,94750.97
2023-02-11T18:18:43.526Z,94731.47
2023-02-11T18:21:15.235Z,94729.78
2023-02-11T18:23:42.483Z,94726.28
2023-02-11T18:26:11.367Z,94729.78
2023-02-11T18:28:38.883Z,94726.59
2023-02-11T18:31:06.695Z,94733.34
2023-02-11T18:33:34.179Z,94728.81
2023-02-11T18:36:06.406Z,94721.38
2023-02-11T18:38:33.336Z,94714.00
2023-02-11T18:41:00.339Z,94702.03
2023-02-11T18:43:31.628Z,94705.97
2023-02-11T18:45:58.557Z,94696.25
2023-02-11T18:48:27.244Z,94695.56
2023-02-11T18:50:54.992Z,94693.75
2023-02-11T18:53:22.447Z,94692.72
2023-02-11T18:55:49.611Z,94697.22
2023-02-11T18:58:16.633Z,94694.63
2023-02-11T19:00:46.179Z,94697.53
2023-02-11T19:03:13.059Z,94699.66
2023-02-11T19:05:47.620Z,94694.44
2023-02-11T19:08:14.634Z,94691.41
2023-02-11T19:10:46.983Z,94689.50
2023-02-11T19:13:14.595Z,94691.47
2023-02-11T19:15:46.965Z,94680.75
2023-02-11T19:18:14.913Z,94685.41
2023-02-11T19:20:42.951Z,94683.16
2023-02-11T19:23:10.446Z,94682.16
2023-02-11T19:25:37.634Z,94693.25
2023-02-11T19:28:04.515Z,94695.41
2023-02-11T19:30:31.334Z,94676.38
2023-02-11T19:32:58.389Z,94686.38
2023-02-11T19:35:25.424Z,94678.47
2023-02-11T19:37:52.256Z,94678.25
2023-02-11T19:40:21.306Z,94666.28
2023-02-11T19:42:48.229Z,94663.38
2023-02-11T19:45:15.167Z,94648.19
2023-02-11T19:47:41.955Z,94657.97
2023-02-11T19:50:09.137Z,94655.06
2023-02-11T19:52:40.249Z,94665.63
2023-02-11T19:55:07.815Z,94654.28
2023-02-11T19:57:34.704Z,94657.22
2023-02-11T20:00:01.606Z,94639.56
2023-02-11T20:02:29.308Z,94647.47
2023-02-11T20:04:56.047Z,94640.13
2023-02-11T20:07:22.838Z,94638.53
2023-02-11T20:09:49.613Z,94643.47
2023-02-11T20:12:16.324Z,94641.13
2023-02-11T20:14:43.228Z,94633.53
2023-02-11T20:17:09.918Z,94645.88
2023-02-11T20:19:36.752Z,94636.78
2023-02-11T20:22:03.577Z,94641.94
2023-02-11T20:24:30.333Z,94642.25
2023-02-11T20:26:57.090Z,94638.84
2023-02-11T20:29:24.940Z,94636.06
2023-02-11T20:31:51.852Z,94639.41
2023-02-11T20:34:18.955Z,94635.31
2023-02-11T20:36:52.078Z,94633.78
2023-02-11T20:39:22.008Z,94626.50
2023-02-11T20:41:48.956Z,94625.19
2023-02-11T20:44:15.850Z,94630.72
2023-02-11T20:46:46.112Z,94626.50
2023-02-11T20:49:18.936Z,94613.25
2023-02-11T20:51:46.402Z,94603.69
2023-02-11T20:54:18.456Z,94602.66
2023-02-11T20:56:48.148Z,94601.91
2023-02-11T20:59:16.689Z,94598.88
2023-02-11T21:01:47.953Z,94595.78
2023-02-11T21:04:20.246Z,94592.84
2023-02-11T21:06:50.106Z,94593.69
2023-02-11T21:09:20.075Z,94594.16
2023-02-11T21:11:47.105Z,94585.13
2023-02-11T21:14:13.934Z,94569.63
2023-02-11T21:16:44.127Z,94563.09
2023-02-11T21:19:11.262Z,94574.94
2023-02-11T21:21:38.776Z,94564.56
2023-02-11T21:24:06.761Z,94555.22
2023-02-11T21:26:35.430Z,94546.31
2023-02-11T21:29:03.908Z,94548.28
2023-02-11T21:31:32.494Z,94551.72
2023-02-11T21:34:02.114Z,94545.09
2023-02-11T21:36:29.877Z,94549.09
2023-02-11T21:38:56.788Z,94551.94
2023-02-11T21:41:24.900Z,94565.59
2023-02-11T21:43:52.264Z,94553.84
2023-02-11T21:46:20.531Z,94543.88
2023-02-11T21:48:48.148Z,94558.50
2023-02-11T21:51:17.219Z,94562.16
2023-02-11T21:53:44.057Z,94550.56
2023-02-11T21:56:16.665Z,94540.69
2023-02-11T21:58:44.124Z,94547.13
2023-02-11T22:01:13.396Z,94543.69
2023-02-11T22:03:40.053Z,94533.97
2023-02-11T22:06:14.881Z,94546.84
2023-02-11T22:08:42.004Z,94541.47
2023-02-11T22:11:11.567Z,94552.97
2023-02-11T22:13:39.102Z,94547.28
2023-02-11T22:16:08.279Z,94547.03
2023-02-11T22:18:35.559Z,94551.69
2023-02-11T22:21:09.457Z,94555.59
2023-02-11T22:23:37.147Z,94566.94
2023-02-11T22:26:18.841Z,94569.13
2023-02-11T22:28:46.021Z,94560.69
2023-02-11T22:31:14.500Z,94560.50
2023-02-11T22:33:41.680Z,94566.66
2023-02-11T22:36:14.257Z,94552.53
2023-02-11T22:38:41.166Z,94555.44
2023-02-11T22:41:09.897Z,94551.19
2023-02-11T22:43:37.047Z,94557.34
2023-02-11T22:46:06.266Z,94558.31
2023-02-11T22:48:34.283Z,94565.03
2023-02-11T22:51:47.239Z,94554.63
2023-02-11T22:54:16.123Z,94554.06
2023-02-11T22:56:43.172Z,94548.66
2023-02-11T22:59:14.564Z,94542.88
2023-02-11T23:01:42.121Z,94540.25
2023-02-11T23:04:11.560Z,94543.13
2023-02-11T23:06:38.718Z,94546.47
2023-02-11T23:09:10.058Z,94552.63
2023-02-11T23:11:36.906Z,94543.94
2023-02-11T23:14:04.198Z,94530.38
2023-02-11T23:16:33.512Z,94553.91
2023-02-11T23:19:02.726Z,94540.44
2023-02-11T23:21:30.513Z,94531.53
2023-02-11T23:23:59.105Z,94525.00
2023-02-11T23:26:26.240Z,94528.53
2023-02-11T23:28:53.192Z,94537.03
2023-02-11T23:31:25.468Z,94505.56
2023-02-11T23:33:52.863Z,94516.50
2023-02-11T23:36:20.571Z,94508.16
2023-02-11T23:38:48.548Z,94515.22
2023-02-11T23:41:16.046Z,94510.25
2023-02-11T23:43:43.208Z,94510.59
2023-02-11T23:46:10.530Z,94511.16
2023-02-11T23:48:37.862Z,94515.75
2023-02-11T23:51:04.907Z,94527.59
2023-02-11T23:53:31.712Z,94519.34
2023-02-11T23:55:59.769Z,94521.31
2023-02-11T23:58:26.577Z,94511.44
